Martindale, Texas
Current Conditions -  °F | °C
As of 4:45 PM on Wednesday 26 Nov 2014 (Local Time) from KHYI Reporting Station
Clear Clear  
Wind Chill: 70°   Ceiling: Unl
Heat Index: 70°   Visibility: 10mi
Dew Point: 36°   Wind: 9mph
Humidity: 28%   Direction: 200°SSW
Pressure: 30.18"   Gusts: NA
Location:  29.85°N, 97.84°W
Report Text: KHYI 262245Z 20008KT 10SM SKC 21/02 A3018
Loading
Personal Weather Stations






























Interactive Weather Map New forecast layout! Learn more

10-Day Weather Forecast

Advertisements
Track Severe Weather on mobile